Jrs Merkur — V2FD8 — position and weather

sailwx.info

Track history (hours):
 
Tides and Currents Weather Stations Pressure Air Temp Water Temp Dewpoint Dewpoint Depression Visibility Wind Speed Wind Dir Waves Ship Positions

Jrs Merkur

Last reported at 2015-Jul-22 17:32 UTC. Time now 2015-Aug-03 23:25 UTC.
Position N 36°43' E 005°10'.
Warning: this ship's position is 12 days out of date.

Length 107 m; draft 8.2 m.

Type: Cargo ship. MMSI: 305644000.

Date/timePositionNaut miles runAvg speedWind from/ knotsBaromVisibWave heightAir tempDewpointWater temp
2015-Jul-22 17:32N 36°43' E 005°10'111 2.6
2015-Jul-20 22:33N 36°57' E 002°51'1210.4
2015-Jul-20 21:21N 36°55' E 002°36'2410.5
2015-Jul-20 19:06N 36°52' E 002°07'610.6
2015-Jul-20 18:32N 36°51' E 001°59'3110.0
2015-Jul-20 15:25N 36°47' E 001°21'1110.3
2015-Jul-20 14:20N 36°45' E 001°07'810.9
2015-Jul-20 13:33N 36°44' E 000°57'1110.8
2015-Jul-20 12:33N 36°42' E 000°44'1111.0
2015-Jul-20 11:31N 36°40' E 000°30'1210.7
2015-Jul-20 10:24N 36°39' E 000°15'4110.7
2015-Jul-20 06:33N 36°33' W 000°36'2110.5
2015-Jul-20 04:33N 36°30' W 001°02'1010.2
2015-Jul-20 03:34N 36°29' W 001°15'1110.0
2015-Jul-20 02:29N 36°27' W 001°28'1410.2
2015-Jul-20 01:05N 36°25' W 001°45'510.2
2015-Jul-20 00:33N 36°24' W 001°52'1110.0
2015-Jul-19 23:25N 36°22' W 002°06'1010.6
2015-Jul-19 22:30N 36°21' W 002°18'1010.6
2015-Jul-19 21:33N 36°19' W 002°30'7510.6
2015-Jul-19 14:33N 36°08' W 004°02'16011.2
2015-Jul-19 00:12N 36°08' W 007°20'710.1
2015-Jul-18 23:32N 36°10' W 007°28'1010.5
2015-Jul-18 22:33N 36°13' W 007°41'1110.5
2015-Jul-18 21:33N 36°15' W 007°53'1110.6
2015-Jul-18 20:28N 36°18' W 008°07'2110.8
2015-Jul-18 18:30N 36°24' W 008°32'1010.6
2015-Jul-18 17:33N 36°27' W 008°44'1110.4
2015-Jul-18 16:30N 36°29' W 008°58'87 9.6
2015-Jul-18 07:26N 37°46' W 009°50'1310.7
2015-Jul-18 06:11N 37°59' W 009°54'910.5
2015-Jul-18 05:20N 38°08' W 009°56'910.4
2015-Jul-18 04:31N 38°16' W 009°58'1010.1
2015-Jul-18 03:33N 38°26' W 010°02'1010.0
2015-Jul-18 02:33N 38°35' W 010°04'1010.3
2015-Jul-18 01:33N 38°46' W 010°06'1010.1
2015-Jul-18 00:33N 38°56' W 010°06'2210.3
2015-Jul-17 22:23N 39°18' W 010°06'  
2015-Jul-14 07:05N 50°32' E 000°02'4 7.6
2015-Jul-14 06:32N 50°33' E 000°09'8 8.2
2015-Jul-14 05:33N 50°36' E 000°21'9 9.2
2015-Jul-14 04:33N 50°38' E 000°35'1010.0
2015-Jul-14 03:33N 50°44' E 000°47'1110.0
2015-Jul-14 02:29N 50°50' E 001°01'9 9.6
2015-Jul-14 01:31N 50°56' E 001°13'8 8.5
2015-Jul-14 00:33N 51°02' E 001°23'7 7.4
2015-Jul-13 23:33N 51°06' E 001°32'6 6.4
2015-Jul-13 22:33N 51°11' E 001°39'7 6.6
2015-Jul-13 21:33N 51°15' E 001°47'8 8.2
2015-Jul-13 20:33N 51°23' E 001°53'10 9.9
2015-Jul-13 19:33N 51°31' E 002°02'1110.9
2015-Jul-13 18:33N 51°39' E 002°13'78 9.4
2015-Jul-13 10:13N 52°40' E 003°33'3910.6
2015-Jul-13 06:33N 53°08' E 004°19'9 9.6
2015-Jul-13 05:33N 53°16' E 004°27'10 9.3
2015-Jul-13 04:32N 53°25' E 004°33'9 9.2
2015-Jul-13 03:33N 53°33' E 004°37'9 9.0
2015-Jul-13 02:33N 53°42' E 004°43'19 9.5
2015-Jul-13 00:33N 53°59' E 004°55'1110.1
2015-Jul-12 23:30N 54°09' E 005°02'  
Track history (hours):
 
Tides and Currents Weather Stations Pressure Air Temp Water Temp Dewpoint Dewpoint Depression Visibility Wind Speed Wind Dir Waves Ship Positions

Jrs Merkur

Last reported at 2015-Jul-22 17:32 UTC. Time now 2015-Aug-03 23:25 UTC.
Position N 36°43' E 005°10'.
Warning: this ship's position is 12 days out of date.

Length 107 m; draft 8.2 m.

Type: Cargo ship. MMSI: 305644000.

Date/timePositionNaut miles runAvg speedWind from/ knotsBaromVisibWave heightAir tempDewpointWater temp
2015-Jul-22 17:32N 36°43' E 005°10'111 2.6
2015-Jul-20 22:33N 36°57' E 002°51'1210.4
2015-Jul-20 21:21N 36°55' E 002°36'2410.5
2015-Jul-20 19:06N 36°52' E 002°07'610.6
2015-Jul-20 18:32N 36°51' E 001°59'3110.0
2015-Jul-20 15:25N 36°47' E 001°21'1110.3
2015-Jul-20 14:20N 36°45' E 001°07'810.9
2015-Jul-20 13:33N 36°44' E 000°57'1110.8
2015-Jul-20 12:33N 36°42' E 000°44'1111.0
2015-Jul-20 11:31N 36°40' E 000°30'1210.7
2015-Jul-20 10:24N 36°39' E 000°15'4110.7
2015-Jul-20 06:33N 36°33' W 000°36'2110.5
2015-Jul-20 04:33N 36°30' W 001°02'1010.2
2015-Jul-20 03:34N 36°29' W 001°15'1110.0
2015-Jul-20 02:29N 36°27' W 001°28'1410.2
2015-Jul-20 01:05N 36°25' W 001°45'510.2
2015-Jul-20 00:33N 36°24' W 001°52'1110.0
2015-Jul-19 23:25N 36°22' W 002°06'1010.6
2015-Jul-19 22:30N 36°21' W 002°18'1010.6
2015-Jul-19 21:33N 36°19' W 002°30'7510.6
2015-Jul-19 14:33N 36°08' W 004°02'16011.2
2015-Jul-19 00:12N 36°08' W 007°20'710.1
2015-Jul-18 23:32N 36°10' W 007°28'1010.5
2015-Jul-18 22:33N 36°13' W 007°41'1110.5
2015-Jul-18 21:33N 36°15' W 007°53'1110.6
2015-Jul-18 20:28N 36°18' W 008°07'2110.8
2015-Jul-18 18:30N 36°24' W 008°32'1010.6
2015-Jul-18 17:33N 36°27' W 008°44'1110.4
2015-Jul-18 16:30N 36°29' W 008°58'87 9.6
2015-Jul-18 07:26N 37°46' W 009°50'1310.7
2015-Jul-18 06:11N 37°59' W 009°54'910.5
2015-Jul-18 05:20N 38°08' W 009°56'910.4
2015-Jul-18 04:31N 38°16' W 009°58'1010.1
2015-Jul-18 03:33N 38°26' W 010°02'1010.0
2015-Jul-18 02:33N 38°35' W 010°04'1010.3
2015-Jul-18 01:33N 38°46' W 010°06'1010.1
2015-Jul-18 00:33N 38°56' W 010°06'2210.3
2015-Jul-17 22:23N 39°18' W 010°06'  
2015-Jul-14 07:05N 50°32' E 000°02'4 7.6
2015-Jul-14 06:32N 50°33' E 000°09'8 8.2
2015-Jul-14 05:33N 50°36' E 000°21'9 9.2
2015-Jul-14 04:33N 50°38' E 000°35'1010.0
2015-Jul-14 03:33N 50°44' E 000°47'1110.0
2015-Jul-14 02:29N 50°50' E 001°01'9 9.6
2015-Jul-14 01:31N 50°56' E 001°13'8 8.5
2015-Jul-14 00:33N 51°02' E 001°23'7 7.4
2015-Jul-13 23:33N 51°06' E 001°32'6 6.4
2015-Jul-13 22:33N 51°11' E 001°39'7 6.6
2015-Jul-13 21:33N 51°15' E 001°47'8 8.2
2015-Jul-13 20:33N 51°23' E 001°53'10 9.9
2015-Jul-13 19:33N 51°31' E 002°02'1110.9
2015-Jul-13 18:33N 51°39' E 002°13'78 9.4
2015-Jul-13 10:13N 52°40' E 003°33'3910.6
2015-Jul-13 06:33N 53°08' E 004°19'9 9.6
2015-Jul-13 05:33N 53°16' E 004°27'10 9.3
2015-Jul-13 04:32N 53°25' E 004°33'9 9.2
2015-Jul-13 03:33N 53°33' E 004°37'9 9.0
2015-Jul-13 02:33N 53°42' E 004°43'19 9.5
2015-Jul-13 00:33N 53°59' E 004°55'1110.1
2015-Jul-12 23:30N 54°09' E 005°02'  

Dump ship's entire track history